Terminal Aerodrome Forecast
Issued by NWS Charleston, WV

Home | Current Version | Previous Version | Text Only | Print | Product List | Glossary On
Versions: 1 2 3 4 5 6 7 8 9 10 11 12 13 14 15 16 17 18 19 20 21 22 23 24 25 26
000
FTUS41 KRLX 250257 AAB
TAFHTS
TAF AMD
KHTS 250257Z 2503/2524 VRB03KT 6SM -SHRA BKN006 OVC010
     FM250500 VRB03KT 2SM -SHRA BR OVC004
     FM251300 32004KT 5SM BR OVC006
     FM251600 33005KT P6SM OVC009
     FM251800 32005KT P6SM OVC015=

USA.gov is the U.S. government's official web portal to all federal, state and local government web resources and services.